Time;durP1;ratioP1;P1;durP2;ratioP2;P2;SDS_P1;SDS_P2;PMS_P1;PMS_P2;Temp;Humidity;BMP_temperature;BMP_pressure;BME280_temperature;BME280_humidity;BME280_pressure;Samples;Min_cycle;Max_cycle;Signal;HPM_P1;HPM_P2
2022/11/21 00:02:03;;;;;;;22.63;9.40;;;1.80;99.90;;;;;;4887392;29;20464;-71
2022/11/21 00:04:30;;;;;;;23.33;9.75;;;1.80;99.90;;;;;;4879412;29;20499;-72
2022/11/21 00:06:55;;;;;;;25.23;10.20;;;1.80;99.90;;;;;;4892855;29;20080;-71
2022/11/21 00:09:21;;;;;;;23.30;9.82;;;1.70;99.90;;;;;;4882796;29;20506;-73
2022/11/21 00:11:49;;;;;;;23.75;10.35;;;1.80;99.90;;;;;;4886041;29;20087;-71
2022/11/21 00:14:15;;;;;;;22.75;9.43;;;1.80;99.90;;;;;;4886181;29;20052;-71
2022/11/21 00:16:40;;;;;;;23.55;10.43;;;1.80;99.90;;;;;;4893673;29;20068;-71
2022/11/21 00:19:06;;;;;;;23.33;9.90;;;1.80;99.90;;;;;;4882585;29;20132;-72
2022/11/21 00:21:32;;;;;;;20.38;9.23;;;1.80;99.90;;;;;;4893227;29;20056;-72
2022/11/21 00:23:57;;;;;;;19.17;9.75;;;1.80;99.90;;;;;;4889257;29;20087;-72
2022/11/21 00:26:23;;;;;;;26.60;10.32;;;1.80;99.90;;;;;;4879841;29;20080;-74
2022/11/21 00:28:49;;;;;;;24.25;10.25;;;1.80;99.90;;;;;;4888456;29;20052;-71
2022/11/21 00:31:22;;;;;;;22.40;9.82;;;1.90;99.90;;;;;;4886957;29;20053;-71
2022/11/21 00:33:47;;;;;;;21.52;9.23;;;1.80;99.90;;;;;;4879602;29;20060;-71
2022/11/21 00:36:13;;;;;;;21.88;9.35;;;1.90;99.90;;;;;;4887620;29;20053;-72
2022/11/21 00:38:39;;;;;;;21.70;8.98;;;1.90;99.90;;;;;;4874849;29;20547;-72
2022/11/21 00:41:05;;;;;;;21.05;9.52;;;2.00;99.90;;;;;;4881484;29;20048;-72
2022/11/21 00:43:31;;;;;;;;;;;2.00;99.90;;;;;;4888243;29;20049;-71
2022/11/21 00:46:00;;;;;;;18.40;8.93;;;1.90;99.90;;;;;;4875493;29;19927;-72
2022/11/21 00:48:25;;;;;;;26.15;9.80;;;1.90;99.90;;;;;;4892238;29;20057;-74
2022/11/21 00:50:51;;;;;;;20.23;8.95;;;1.80;99.90;;;;;;4894016;29;20486;-71
2022/11/21 00:53:17;;;;;;;21.42;10.05;;;1.80;99.90;;;;;;4882432;29;20131;-71
2022/11/21 00:55:42;;;;;;;21.60;9.13;;;1.80;99.90;;;;;;4884895;29;20053;-71
2022/11/21 00:58:08;;;;;;;21.95;9.70;;;1.80;99.90;;;;;;4894099;29;20104;-71
2022/11/21 01:00:34;;;;;;;24.40;9.50;;;1.80;99.90;;;;;;4879274;29;20052;-72
2022/11/21 01:03:00;;;;;;;19.50;9.25;;;2.00;99.90;;;;;;4880182;29;20511;-72
2022/11/21 01:05:25;;;;;;;;;;;1.70;99.90;;;;;;4887262;29;20539;-72
2022/11/21 01:07:51;;;;;;;22.15;9.45;;;1.60;99.90;;;;;;4878209;29;19923;-71
2022/11/21 01:10:17;;;;;;;23.73;9.70;;;1.50;99.90;;;;;;4880045;29;20128;-71
2022/11/21 01:12:43;;;;;;;24.75;8.82;;;1.50;99.90;;;;;;4878742;29;20058;-71
2022/11/21 01:15:09;;;;;;;18.92;8.75;;;1.50;99.90;;;;;;4881286;29;20060;-72
2022/11/21 01:17:35;;;;;;;21.65;9.60;;;1.50;99.90;;;;;;4895068;29;20065;-71
2022/11/21 01:20:00;;;;;;;23.70;9.90;;;1.50;99.90;;;;;;4896365;29;20520;-71
2022/11/21 01:22:26;;;;;;;25.02;10.00;;;1.50;99.90;;;;;;4887055;29;20071;-71
2022/11/21 01:24:51;;;;;;;20.92;9.65;;;1.50;99.90;;;;;;4896829;29;20060;-71
2022/11/21 01:27:17;;;;;;;19.00;9.23;;;1.50;99.90;;;;;;4898357;29;20052;-71
2022/11/21 01:29:43;;;;;;;18.58;8.77;;;1.50;99.90;;;;;;4896364;29;20048;-72
2022/11/21 01:32:08;;;;;;;21.60;9.15;;;1.50;99.90;;;;;;4897610;29;20044;-72
2022/11/21 01:34:34;;;;;;;20.90;10.02;;;1.50;99.90;;;;;;4884073;29;20104;-71
2022/11/21 01:37:01;;;;;;;21.75;9.35;;;1.50;99.90;;;;;;4879148;29;20049;-71
2022/11/21 01:39:26;;;;;;;24.85;9.70;;;1.50;99.90;;;;;;4878106;29;20515;-71
2022/11/21 01:41:52;;;;;;;22.05;9.70;;;1.50;99.90;;;;;;4879210;29;20080;-71
2022/11/21 01:44:22;;;;;;;19.77;8.93;;;1.50;99.90;;;;;;4879326;29;20080;-71
2022/11/21 01:46:48;;;;;;;23.83;9.57;;;1.50;99.90;;;;;;4877856;29;20088;-72
2022/11/21 01:49:17;;;;;;;21.75;9.65;;;1.50;99.90;;;;;;4880907;29;20057;-71
2022/11/21 01:52:01;;;;;;;27.60;9.93;;;1.50;99.90;;;;;;4893235;29;20048;-71
2022/11/21 01:54:36;;;;;;;20.40;8.55;;;1.50;99.90;;;;;;4896741;29;20057;-71
2022/11/21 01:57:07;;;;;;;19.45;9.00;;;1.50;99.90;;;;;;4881197;29;20427;-72
2022/11/21 01:59:38;;;;;;;25.45;10.27;;;1.50;99.90;;;;;;4878902;29;20071;-71
2022/11/21 02:02:07;;;;;;;25.35;9.98;;;1.50;99.90;;;;;;4877324;29;20051;-71
2022/11/21 02:04:35;;;;;;;23.50;9.80;;;1.60;99.90;;;;;;4880208;29;20108;-71
2022/11/21 02:07:04;;;;;;;22.98;9.68;;;1.60;99.90;;;;;;4876160;29;20071;-72
2022/11/21 02:09:32;;;;;;;23.60;10.32;;;1.60;99.90;;;;;;4886868;29;20053;-72
2022/11/21 02:12:04;;;;;;;26.98;9.80;;;1.60;99.90;;;;;;4897392;29;20542;-71
2022/11/21 02:14:30;;;;;;;26.08;9.82;;;1.60;99.90;;;;;;4889951;29;20079;-72
2022/11/21 02:17:01;;;;;;;22.77;10.05;;;1.60;99.90;;;;;;4878089;29;20128;-71
2022/11/21 02:19:39;;;;;;;23.33;10.13;;;1.60;99.90;;;;;;4887792;29;20115;-71
2022/11/21 02:22:13;;;;;;;24.25;10.02;;;1.60;99.90;;;;;;4885875;29;20085;-72
2022/11/21 02:24:45;;;;;;;21.15;9.65;;;1.60;99.90;;;;;;4877427;29;20132;-75
2022/11/21 02:27:11;;;;;;;25.20;10.30;;;1.50;99.90;;;;;;4894607;29;20490;-72
2022/11/21 02:29:38;;;;;;;;;;;1.50;99.90;;;;;;4887986;29;20061;-74
2022/11/21 02:32:04;;;;;;;21.35;8.98;;;1.60;99.90;;;;;;4878013;29;19979;-73
2022/11/21 02:34:31;;;;;;;25.55;9.77;;;1.50;99.90;;;;;;4877340;29;20056;-71
2022/11/21 02:36:57;;;;;;;21.58;9.48;;;1.60;99.90;;;;;;4881444;29;20079;-71
2022/11/21 02:39:28;;;;;;;20.88;9.38;;;1.60;99.90;;;;;;4895951;29;20072;-71
2022/11/21 02:42:13;;;;;;;21.63;9.43;;;1.60;99.90;;;;;;4896419;29;20049;-72
2022/11/21 02:44:50;;;;;;;25.08;10.45;;;1.60;99.90;;;;;;4891577;29;20131;-74
2022/11/21 02:47:15;;;;;;;;;;;1.60;99.90;;;;;;4877777;29;20076;-72
2022/11/21 02:50:00;;;;;;;19.98;8.77;;;1.50;99.90;;;;;;4889496;29;19923;-74
2022/11/21 02:52:26;;;;;;;25.58;9.88;;;1.50;99.90;;;;;;4884945;29;20053;-72
2022/11/21 02:54:52;;;;;;;20.52;8.90;;;1.40;99.90;;;;;;4888227;29;20064;-72
2022/11/21 02:57:18;;;;;;;26.60;10.38;;;1.30;99.90;;;;;;4882577;29;20049;-71
2022/11/21 02:59:43;;;;;;;25.13;10.13;;;1.20;99.90;;;;;;4876226;29;20505;-74
2022/11/21 03:02:09;;;;;;;18.65;9.05;;;1.20;99.90;;;;;;4878448;29;20128;-72
2022/11/21 03:04:35;;;;;;;20.08;8.65;;;1.10;99.90;;;;;;4883019;29;20056;-71
2022/11/21 03:07:00;;;;;;;21.10;8.95;;;1.00;99.90;;;;;;4888390;29;20060;-71
2022/11/21 03:09:26;;;;;;;22.33;9.43;;;1.00;99.90;;;;;;4861245;29;20091;-71
2022/11/21 03:11:52;;;;;;;24.17;9.43;;;0.90;99.90;;;;;;4876059;29;20095;-71
2022/11/21 03:14:17;;;;;;;20.02;9.70;;;0.90;99.90;;;;;;4876799;29;20132;-71
2022/11/21 03:16:43;;;;;;;22.48;10.07;;;0.80;99.90;;;;;;4895812;29;20127;-74
2022/11/21 03:19:09;;;;;;;23.60;9.02;;;0.80;99.90;;;;;;4894753;29;20064;-72
2022/11/21 03:21:34;;;;;;;20.85;9.40;;;0.70;99.90;;;;;;4892929;29;20056;-72
2022/11/21 03:24:00;;;;;;;21.25;9.32;;;0.70;99.90;;;;;;4880013;29;20060;-72
2022/11/21 03:26:27;;;;;;;23.10;10.27;;;0.70;99.90;;;;;;4876894;29;20490;-71
2022/11/21 03:28:52;;;;;;;21.90;9.35;;;0.60;99.90;;;;;;4893142;29;20414;-72
2022/11/21 03:31:18;;;;;;;25.55;10.75;;;0.60;99.90;;;;;;4894879;29;20060;-71
2022/11/21 03:33:43;;;;;;;27.38;9.88;;;0.50;99.90;;;;;;4896138;29;20084;-71
2022/11/21 03:36:09;;;;;;;22.08;9.23;;;0.40;99.90;;;;;;4885016;29;20049;-71
2022/11/21 03:38:35;;;;;;;24.40;10.88;;;0.40;99.90;;;;;;4876959;29;20057;-71
2022/11/21 03:41:28;;;;;;;20.88;9.07;;;0.30;99.90;;;;;;4876694;29;20136;-71
2022/11/21 03:43:51;;;;;;;21.58;9.10;;;0.40;99.90;;;;;;4877007;29;20048;-71
2022/11/21 03:46:16;;;;;;;24.58;10.02;;;0.40;99.90;;;;;;4876775;29;20044;-71
2022/11/21 03:48:42;;;;;;;21.83;9.80;;;0.40;99.90;;;;;;4881521;29;20041;-71
2022/11/21 03:51:07;;;;;;;22.58;10.35;;;0.40;99.90;;;;;;4885418;29;20623;-71
2022/11/21 03:53:33;;;;;;;24.13;9.60;;;0.40;99.90;;;;;;4889335;29;20514;-71
2022/11/21 03:55:59;;;;;;;28.67;10.15;;;0.40;99.90;;;;;;4894111;29;20049;-71
2022/11/21 03:58:24;;;;;;;22.42;9.60;;;0.30;99.90;;;;;;4892542;29;20052;-71
2022/11/21 04:00:50;;;;;;;20.98;9.10;;;0.30;99.90;;;;;;4876742;29;20053;-74
2022/11/21 04:03:16;;;;;;;22.63;9.80;;;0.20;99.90;;;;;;4875712;29;20509;-71
2022/11/21 04:05:43;;;;;;;23.67;9.70;;;0.20;99.90;;;;;;4875400;29;20606;-71
2022/11/21 04:08:09;;;;;;;26.63;10.88;;;0.10;99.90;;;;;;4884805;29;20129;-71
2022/11/21 04:10:34;;;;;;;20.70;8.85;;;0.10;99.90;;;;;;4894248;29;20135;-71
2022/11/21 04:13:00;;;;;;;24.73;10.25;;;0.00;99.90;;;;;;4890662;29;20060;-71
2022/11/21 04:15:26;;;;;;;20.27;9.10;;;-0.10;99.90;;;;;;4874875;29;20053;-71
2022/11/21 04:17:51;;;;;;;22.75;8.60;;;-0.10;99.90;;;;;;4876844;29;20136;-74
2022/11/21 04:20:17;;;;;;;24.20;9.43;;;-0.20;99.90;;;;;;4875376;29;20651;-71
2022/11/21 04:22:43;;;;;;;22.60;9.90;;;-0.30;99.90;;;;;;4876630;29;20061;-71
2022/11/21 04:25:09;;;;;;;21.85;9.93;;;-0.30;99.90;;;;;;4876342;29;20053;-71
2022/11/21 04:27:34;;;;;;;26.23;9.95;;;-0.30;99.90;;;;;;4875989;29;20151;-71
2022/11/21 04:30:00;;;;;;;20.35;9.32;;;-0.30;99.90;;;;;;4843866;29;20057;-72
2022/11/21 04:32:25;;;;;;;21.77;9.55;;;-0.40;99.90;;;;;;4885181;29;20059;-72
2022/11/21 04:34:51;;;;;;;26.63;10.02;;;-0.50;99.90;;;;;;4894329;29;20052;-71
2022/11/21 04:37:17;;;;;;;21.33;10.20;;;-0.50;99.90;;;;;;4894006;29;20041;-71
2022/11/21 04:39:42;;;;;;;24.23;10.75;;;-0.50;99.90;;;;;;4890454;29;20088;-71
2022/11/21 04:42:08;;;;;;;22.40;8.18;;;-0.50;99.90;;;;;;4884720;29;20518;-71
2022/11/21 04:44:34;;;;;;;21.90;10.10;;;-0.60;99.90;;;;;;4881044;29;20542;-71
2022/11/21 04:46:59;;;;;;;23.15;9.25;;;-0.60;99.90;;;;;;4893872;29;20060;-71
2022/11/21 04:49:25;;;;;;;26.85;10.73;;;-0.60;99.90;;;;;;4894420;29;20485;-71
2022/11/21 04:51:50;;;;;;;24.65;9.90;;;-0.60;99.90;;;;;;4881631;29;20128;-71
2022/11/21 04:54:16;;;;;;;23.27;9.95;;;-0.70;99.90;;;;;;4885420;29;20155;-73
2022/11/21 04:56:42;;;;;;;20.83;9.27;;;-0.70;99.90;;;;;;4894690;29;20680;-73
2022/11/21 04:59:10;;;;;;;24.27;9.80;;;-0.80;99.90;;;;;;4894387;29;20455;-73
2022/11/21 05:01:37;;;;;;;21.10;10.02;;;-0.80;99.90;;;;;;4894921;29;20071;-73
2022/11/21 05:04:02;;;;;;;;;;;-0.80;99.90;;;;;;4894339;29;20132;-73
2022/11/21 05:06:28;;;;;;;25.65;9.07;;;-0.70;99.90;;;;;;4893164;29;20010;-73
2022/11/21 05:08:54;;;;;;;19.33;9.15;;;-0.90;99.90;;;;;;4908876;29;20049;-73
2022/11/21 05:14:04;;;;;;;23.60;11.07;;;-1.00;99.90;;;;;;4893895;29;20057;-73
2022/11/21 05:16:32;;;;;;;22.00;9.95;;;-0.90;99.90;;;;;;4908679;29;20547;-73
2022/11/21 05:18:57;;;;;;;22.52;8.65;;;-0.90;99.90;;;;;;4892611;29;20506;-76
2022/11/21 05:21:23;;;;;;;30.05;9.43;;;-0.90;99.90;;;;;;4892901;29;20083;-73
2022/11/21 05:23:49;;;;;;;38.90;11.25;;;-1.00;99.90;;;;;;4894230;29;20566;-74
2022/11/21 05:26:14;;;;;;;23.90;9.18;;;-1.10;99.90;;;;;;4894502;29;20052;-73
2022/11/21 05:28:40;;;;;;;18.58;8.35;;;-1.20;99.90;;;;;;4894953;29;20088;-73
2022/11/21 05:31:06;;;;;;;39.17;9.05;;;-1.30;99.90;;;;;;4894051;29;20108;-73
2022/11/21 05:33:31;;;;;;;94.10;10.70;;;-1.40;99.90;;;;;;4895273;29;20792;-73
2022/11/21 05:35:57;;;;;;;54.65;10.60;;;-1.40;99.90;;;;;;4893315;29;20057;-75
2022/11/21 05:38:23;;;;;;;25.88;8.82;;;-1.50;99.90;;;;;;4894185;29;20048;-73
2022/11/21 05:40:51;;;;;;;39.38;10.30;;;-1.50;99.90;;;;;;4909768;29;20479;-73
2022/11/21 05:46:01;;;;;;;27.23;9.80;;;-1.50;99.90;;;;;;4878836;29;20131;-75
2022/11/21 05:48:26;;;;;;;24.48;9.35;;;-1.50;99.90;;;;;;4879518;29;20562;-72
2022/11/21 05:50:52;;;;;;;22.63;10.30;;;-1.50;99.90;;;;;;4876818;29;20056;-74
2022/11/21 05:53:18;;;;;;;21.73;9.23;;;-1.50;99.90;;;;;;4877431;29;20049;-73
2022/11/21 05:55:44;;;;;;;20.40;8.70;;;-1.50;99.90;;;;;;4879336;29;20746;-73
2022/11/21 05:58:10;;;;;;;20.02;8.27;;;-1.50;99.90;;;;;;4877608;29;20128;-73
2022/11/21 06:00:36;;;;;;;22.48;9.52;;;-1.50;99.90;;;;;;4879335;29;20101;-73
2022/11/21 06:05:46;;;;;;;24.67;9.30;;;-1.50;99.90;;;;;;4896148;29;19983;-73
2022/11/21 06:08:12;;;;;;;22.42;10.07;;;-1.50;99.90;;;;;;4892411;29;20053;-73
2022/11/21 06:10:37;;;;;;;22.88;9.05;;;-1.50;99.90;;;;;;4879129;29;20056;-73
2022/11/21 06:13:20;;;;;;;24.98;9.77;;;-1.50;99.90;;;;;;4862030;29;20138;-75
2022/11/21 06:15:50;;;;;;;25.33;11.07;;;-1.50;99.90;;;;;;4878236;29;20073;-73
2022/11/21 06:18:16;;;;;;;28.13;10.48;;;-1.50;99.90;;;;;;4878262;29;20049;-73
2022/11/21 06:20:42;;;;;;;28.23;10.95;;;-1.50;99.90;;;;;;4876585;29;20406;-73
2022/11/21 06:23:07;;;;;;;23.52;10.45;;;-1.50;99.90;;;;;;4891887;29;20053;-73
2022/11/21 06:25:33;;;;;;;27.60;10.35;;;-1.50;99.90;;;;;;4878956;29;20048;-73
2022/11/21 06:27:59;;;;;;;26.75;10.93;;;-1.50;99.90;;;;;;4877322;29;20049;-73
2022/11/21 06:30:25;;;;;;;24.00;10.38;;;-1.40;99.90;;;;;;4876650;29;20092;-73
2022/11/21 06:32:50;;;;;;;23.75;10.15;;;-1.00;99.90;;;;;;4882468;29;20091;-73
2022/11/21 06:35:16;;;;;;;27.25;10.80;;;-1.40;99.90;;;;;;4891680;29;20060;-73
2022/11/21 06:37:42;;;;;;;28.45;10.98;;;-1.40;99.90;;;;;;4888151;29;20155;-73
2022/11/21 06:40:08;;;;;;;31.45;11.90;;;-1.30;99.90;;;;;;4896545;29;20060;-73
2022/11/21 06:42:34;;;;;;;25.58;10.32;;;-1.30;99.90;;;;;;4911894;29;20052;-72
2022/11/21 06:44:59;;;;;;;27.40;11.30;;;-1.30;99.90;;;;;;4879221;29;20056;-73
2022/11/21 06:47:25;;;;;;;22.02;9.98;;;-1.30;99.90;;;;;;4877050;29;20049;-73
2022/11/21 06:49:51;;;;;;;29.20;10.00;;;-1.30;99.90;;;;;;4876176;29;20056;-73
2022/11/21 06:52:16;;;;;;;24.35;9.00;;;-1.30;99.90;;;;;;4876733;29;20494;-73
2022/11/21 06:54:42;;;;;;;23.42;10.05;;;-1.40;99.90;;;;;;4891953;29;20048;-73
2022/11/21 06:57:08;;;;;;;28.05;11.20;;;-1.40;99.90;;;;;;4882698;29;20045;-73
2022/11/21 06:59:33;;;;;;;22.38;10.43;;;-1.40;99.90;;;;;;4896016;29;20052;-73
2022/11/21 07:01:59;;;;;;;28.80;12.68;;;-1.40;99.90;;;;;;4896120;29;20617;-73
2022/11/21 07:04:25;;;;;;;28.33;11.40;;;-1.40;99.90;;;;;;4894283;29;20064;-73
2022/11/21 07:06:51;;;;;;;25.90;11.05;;;-1.30;99.90;;;;;;4894969;29;20135;-73
2022/11/21 07:09:16;;;;;;;29.67;11.02;;;-1.20;99.90;;;;;;4894903;29;20108;-73
2022/11/21 07:11:42;;;;;;;28.48;10.40;;;-1.20;99.90;;;;;;4896374;29;20486;-73
2022/11/21 07:14:08;;;;;;;25.27;9.82;;;-1.30;99.90;;;;;;4894382;29;20104;-74
2022/11/21 07:16:34;;;;;;;22.50;9.85;;;-1.30;99.90;;;;;;4879297;29;20061;-73
2022/11/21 07:18:59;;;;;;;29.15;12.02;;;-1.30;99.90;;;;;;4887486;29;20057;-74
2022/11/21 07:21:25;;;;;;;27.83;11.75;;;-1.30;99.90;;;;;;4883353;29;20044;-73
2022/11/21 07:23:51;;;;;;;25.20;11.00;;;-1.30;99.90;;;;;;4895395;29;20052;-74
2022/11/21 07:26:17;;;;;;;29.50;11.98;;;-1.30;99.90;;;;;;4893645;29;20049;-73
2022/11/21 07:28:42;;;;;;;28.67;12.07;;;-1.30;99.90;;;;;;4863929;29;20132;-72
2022/11/21 07:31:09;;;;;;;28.20;11.77;;;-1.30;99.90;;;;;;4895766;29;20048;-79
2022/11/21 07:33:36;;;;;;;26.30;10.65;;;-1.30;99.90;;;;;;4876256;29;20053;-74
2022/11/21 07:36:02;;;;;;;26.90;11.48;;;-1.30;99.90;;;;;;4875951;29;20426;-73
2022/11/21 07:38:28;;;;;;;;;;;-1.30;99.90;;;;;;4888557;29;20652;-73
2022/11/21 07:40:56;;;;;;;27.58;11.85;;;-1.20;99.90;;;;;;4891483;29;19924;-74
2022/11/21 07:43:21;;;;;;;27.63;11.30;;;-1.20;99.90;;;;;;4892043;29;20052;-73
2022/11/21 07:45:47;;;;;;;30.20;12.77;;;-1.20;99.90;;;;;;4890952;29;20494;-73
2022/11/21 07:48:13;;;;;;;28.10;12.35;;;-1.10;99.90;;;;;;4889773;29;20570;-73
2022/11/21 07:50:39;;;;;;;29.70;12.18;;;-1.10;99.90;;;;;;4874565;29;20061;-73
2022/11/21 07:53:08;;;;;;;31.58;11.25;;;-0.90;99.90;;;;;;4877033;29;20061;-74
2022/11/21 07:55:33;;;;;;;29.15;12.23;;;-1.00;99.90;;;;;;4887756;29;20135;-73
2022/11/21 07:58:05;;;;;;;30.67;12.18;;;-1.00;99.90;;;;;;4890883;29;20131;-73
2022/11/21 08:00:32;;;;;;;25.75;11.02;;;-0.90;99.90;;;;;;4894647;29;20159;-73
2022/11/21 08:02:58;;;;;;;32.63;11.35;;;-0.90;99.90;;;;;;4894502;29;20060;-73
2022/11/21 08:05:23;;;;;;;32.30;13.95;;;-0.80;99.90;;;;;;4891174;29;20075;-73
2022/11/21 08:07:49;;;;;;;26.20;10.60;;;-0.80;99.90;;;;;;4887063;29;20131;-74
2022/11/21 08:10:16;;;;;;;32.92;11.90;;;-0.80;99.90;;;;;;4891293;29;20808;-68
2022/11/21 08:12:43;;;;;;;31.10;13.05;;;-0.70;99.90;;;;;;4893318;29;20192;-66
2022/11/21 08:15:09;;;;;;;32.03;13.38;;;-0.70;99.90;;;;;;4895329;29;20076;-66
2022/11/21 08:17:34;;;;;;;;;;;-0.60;99.90;;;;;;4894975;29;20060;-67
2022/11/21 08:20:01;;;;;;;30.23;12.20;;;-0.50;99.90;;;;;;4892660;29;20313;-78
2022/11/21 08:22:27;;;;;;;29.50;12.55;;;-0.40;99.90;;;;;;4893292;29;20557;-74
2022/11/21 08:24:53;;;;;;;29.00;12.90;;;-0.30;99.90;;;;;;4893598;29;20089;-73
2022/11/21 08:27:20;;;;;;;;;;;-0.20;99.90;;;;;;4890470;29;20048;-71
2022/11/21 08:29:46;;;;;;;26.90;10.50;;;-0.20;99.90;;;;;;4886394;29;19975;-73
2022/11/21 08:32:12;;;;;;;25.67;10.55;;;-0.20;99.90;;;;;;4879585;29;20052;-76
2022/11/21 08:34:38;;;;;;;29.02;12.35;;;-0.10;99.90;;;;;;4886175;29;20058;-71
2022/11/21 08:37:04;;;;;;;30.40;11.82;;;-0.10;99.90;;;;;;4887974;29;20048;-72
2022/11/21 08:39:32;;;;;;;33.10;13.38;;;0.00;99.90;;;;;;4890889;29;20049;-71
2022/11/21 08:42:04;;;;;;;25.65;10.77;;;0.10;99.90;;;;;;4880582;29;20139;-70
2022/11/21 08:44:33;;;;;;;27.95;12.05;;;0.20;99.90;;;;;;4885990;29;20454;-71
2022/11/21 08:47:00;;;;;;;26.23;10.68;;;0.20;99.90;;;;;;4879663;29;20045;-71
2022/11/21 08:49:26;;;;;;;25.58;11.57;;;0.30;99.90;;;;;;4881853;29;20091;-70
2022/11/21 08:51:53;;;;;;;27.98;10.70;;;0.40;99.90;;;;;;4889656;29;20048;-70
2022/11/21 08:54:21;;;;;;;25.58;9.95;;;0.40;99.90;;;;;;4885122;29;20057;-71
2022/11/21 08:56:47;;;;;;;29.75;12.40;;;0.50;99.90;;;;;;4880024;29;20100;-73
2022/11/21 08:59:14;;;;;;;25.67;10.98;;;0.50;99.90;;;;;;4884840;29;20060;-71
2022/11/21 09:01:40;;;;;;;25.05;11.18;;;0.50;99.90;;;;;;4881478;29;20056;-72
2022/11/21 09:04:06;;;;;;;28.38;11.75;;;0.50;99.90;;;;;;4885611;29;20113;-71
2022/11/21 09:06:32;;;;;;;26.48;11.65;;;0.60;99.90;;;;;;4884080;29;20140;-76
2022/11/21 09:08:58;;;;;;;28.02;11.63;;;0.70;99.90;;;;;;4888373;29;20064;-71
2022/11/21 09:11:24;;;;;;;24.45;10.68;;;0.70;99.90;;;;;;4870356;29;20057;-73
2022/11/21 09:19:20;;;;;;;25.90;11.02;;;0.90;99.90;;;;;;4884450;29;20152;-72
2022/11/21 09:21:48;;;;;;;25.13;10.80;;;0.90;99.90;;;;;;4890427;29;20048;-70
2022/11/21 09:24:14;;;;;;;30.88;10.80;;;1.00;99.90;;;;;;4893859;29;20060;-70
2022/11/21 09:26:40;;;;;;;26.33;10.88;;;1.20;99.90;;;;;;4891392;29;20507;-70
2022/11/21 09:29:05;;;;;;;26.75;10.93;;;1.30;99.90;;;;;;4892925;29;20131;-71
2022/11/21 09:31:31;;;;;;;25.42;10.38;;;1.20;99.90;;;;;;4896632;29;20518;-70
2022/11/21 09:33:57;;;;;;;23.92;9.75;;;1.20;99.90;;;;;;4892720;29;20390;-71
2022/11/21 09:36:23;;;;;;;23.98;11.30;;;1.10;99.90;;;;;;4890950;29;20060;-71
2022/11/21 09:38:51;;;;;;;26.85;10.95;;;1.00;99.90;;;;;;4895652;29;20662;-69
2022/11/21 09:44:21;;;;;;;27.75;10.98;;;0.90;99.90;;;;;;4887593;29;20417;-70
2022/11/21 09:46:54;;;;;;;24.38;10.20;;;0.90;99.90;;;;;;4893321;29;20048;-71
2022/11/21 09:49:22;;;;;;;27.50;11.60;;;0.80;99.90;;;;;;4891000;29;20080;-75
2022/11/21 09:51:50;;;;;;;26.23;10.80;;;0.90;99.90;;;;;;4888965;29;20118;-72
2022/11/21 09:54:22;;;;;;;32.90;12.88;;;0.90;99.90;;;;;;4887336;29;20728;-71
2022/11/21 09:56:49;;;;;;;32.38;11.95;;;1.00;99.90;;;;;;4887323;29;20134;-72
2022/11/21 09:59:20;;;;;;;35.85;12.55;;;1.00;99.90;;;;;;4871094;29;20264;-73
2022/11/21 10:01:46;;;;;;;28.92;12.25;;;1.00;99.90;;;;;;4890435;29;20056;-71
2022/11/21 10:04:12;;;;;;;35.25;12.43;;;1.00;99.90;;;;;;4872201;29;20049;-71
2022/11/21 10:06:49;;;;;;;26.63;11.25;;;1.10;99.90;;;;;;4875665;29;20411;-71
2022/11/21 10:09:32;;;;;;;26.55;11.93;;;1.10;99.90;;;;;;4888443;29;20053;-72
2022/11/21 10:15:39;;;;;;;27.63;11.73;;;1.20;99.90;;;;;;4885129;29;20063;-70
2022/11/21 10:18:42;;;;;;;29.83;12.48;;;1.20;99.90;;;;;;4889493;29;20084;-72
2022/11/21 10:21:23;;;;;;;26.88;10.70;;;1.30;99.90;;;;;;4888756;29;20049;-71
2022/11/21 10:24:22;;;;;;;28.77;11.52;;;1.30;99.90;;;;;;4893305;29;20055;-70
2022/11/21 10:26:54;;;;;;;30.10;10.77;;;1.30;99.90;;;;;;4875904;29;20072;-73
2022/11/21 10:29:33;;;;;;;22.85;10.35;;;1.30;99.90;;;;;;4887484;29;20136;-72
2022/11/21 10:32:06;;;;;;;27.73;12.05;;;1.30;99.90;;;;;;4888960;29;20049;-72
2022/11/21 10:34:37;;;;;;;26.40;11.27;;;1.40;99.90;;;;;;4889166;29;20052;-70
2022/11/21 10:37:45;;;;;;;27.30;12.35;;;1.40;99.90;;;;;;4893066;29;20068;-72
2022/11/21 10:40:28;;;;;;;28.50;11.23;;;1.50;99.90;;;;;;4886023;29;20088;-71
2022/11/21 10:42:56;;;;;;;29.38;10.43;;;1.60;99.90;;;;;;4895728;29;20044;-72
2022/11/21 10:45:23;;;;;;;25.92;10.73;;;1.70;99.90;;;;;;4885566;29;20104;-70
2022/11/21 10:47:50;;;;;;;27.35;11.23;;;1.80;99.90;;;;;;4889308;29;20036;-70
2022/11/21 10:50:45;;;;;;;26.23;10.30;;;2.10;99.90;;;;;;4888734;29;20497;-69
2022/11/21 10:56:19;;;;;;;25.05;10.75;;;2.20;99.90;;;;;;4887988;29;20068;-70
2022/11/21 10:58:50;;;;;;;23.20;9.73;;;2.30;99.90;;;;;;4889864;29;20060;-69
2022/11/21 11:01:20;;;;;;;25.90;9.88;;;2.30;99.90;;;;;;4888878;29;20060;-69
2022/11/21 11:03:46;;;;;;;22.10;9.23;;;2.30;99.90;;;;;;4888638;29;20053;-69
2022/11/21 11:06:11;;;;;;;24.85;9.38;;;2.40;99.90;;;;;;4890988;29;20162;-75
2022/11/21 11:08:51;;;;;;;22.98;9.77;;;2.50;99.90;;;;;;4888938;29;20205;-68
2022/11/21 11:11:20;;;;;;;19.70;7.90;;;2.90;99.90;;;;;;4865006;29;20558;-69
2022/11/21 11:13:53;;;;;;;22.65;8.82;;;3.30;99.90;;;;;;4867432;29;20087;-70
2022/11/21 11:16:21;;;;;;;21.48;8.93;;;3.70;99.90;;;;;;4886967;29;20067;-72
2022/11/21 11:18:57;;;;;;;21.67;9.55;;;3.90;99.90;;;;;;4872966;29;20466;-69
2022/11/21 11:21:28;;;;;;;25.52;9.50;;;3.80;99.90;;;;;;4892998;29;20444;-70
2022/11/21 11:24:19;;;;;;;19.58;8.88;;;3.70;99.90;;;;;;4887265;29;20064;-70
2022/11/21 11:26:47;;;;;;;20.52;9.07;;;3.70;99.90;;;;;;4871678;29;20531;-70
2022/11/21 11:29:16;;;;;;;22.13;9.60;;;3.70;99.90;;;;;;4900694;29;20048;-70
2022/11/21 11:31:54;;;;;;;23.52;9.63;;;3.80;99.90;;;;;;4891006;29;20163;-70
2022/11/21 11:34:21;;;;;;;20.85;8.85;;;3.90;99.90;;;;;;4887729;29;20051;-73
2022/11/21 11:37:12;;;;;;;21.98;9.13;;;3.80;99.90;;;;;;4890710;29;20041;-71
2022/11/21 11:39:59;;;;;;;18.88;8.68;;;3.80;99.90;;;;;;4887945;29;20117;-70
2022/11/21 11:49:02;;;;;;;21.77;9.10;;;3.40;99.90;;;;;;4876488;29;20084;-71
2022/11/21 11:51:36;;;;;;;22.25;8.15;;;3.20;99.90;;;;;;4894842;29;20052;-72
2022/11/21 11:54:36;;;;;;;22.50;8.48;;;3.30;99.90;;;;;;4884989;29;20052;-73
2022/11/21 11:57:03;;;;;;;21.88;9.70;;;3.00;99.90;;;;;;4881709;29;20056;-70
2022/11/21 11:59:38;;;;;;;24.50;9.80;;;2.90;99.90;;;;;;4884639;29;20052;-71
2022/11/21 12:02:34;;;;;;;25.88;9.57;;;2.80;99.90;;;;;;4892110;29;20052;-73
2022/11/21 12:05:10;;;;;;;24.15;9.10;;;2.80;99.90;;;;;;4884483;29;20057;-71
2022/11/21 12:07:50;;;;;;;25.97;9.97;;;2.80;99.90;;;;;;4887271;29;20077;-75
2022/11/21 12:10:25;;;;;;;23.08;9.80;;;2.90;99.90;;;;;;4884896;29;20089;-71
2022/11/21 12:13:14;;;;;;;25.35;10.43;;;2.90;99.90;;;;;;4888132;29;20148;-71
2022/11/21 12:15:50;;;;;;;21.58;9.23;;;3.00;99.90;;;;;;4883134;29;20064;-70
2022/11/21 12:18:18;;;;;;;23.95;10.50;;;3.10;99.90;;;;;;4887405;29;20415;-69
2022/11/21 12:20:47;;;;;;;23.83;9.57;;;3.10;99.90;;;;;;4900934;29;20044;-71
2022/11/21 12:23:13;;;;;;;27.10;9.70;;;3.10;99.90;;;;;;4896019;29;20037;-71
2022/11/21 12:26:01;;;;;;;22.05;9.57;;;3.10;99.90;;;;;;4880862;29;20056;-75
2022/11/21 12:29:00;;;;;;;19.77;9.77;;;3.30;99.90;;;;;;4889806;29;20057;-70
2022/11/21 12:31:44;;;;;;;25.58;10.25;;;3.30;99.90;;;;;;4883324;29;20060;-69
2022/11/21 12:34:12;;;;;;;22.95;9.27;;;3.40;99.90;;;;;;4885743;29;20044;-70
2022/11/21 12:36:44;;;;;;;27.48;10.27;;;3.50;99.90;;;;;;4891340;29;20045;-72
2022/11/21 12:39:57;;;;;;;23.17;9.13;;;3.80;99.90;;;;;;4889187;29;20055;-70
2022/11/21 12:42:56;;;;;;;28.98;10.43;;;5.10;99.90;;;;;;4888383;29;20063;-71
2022/11/21 12:45:28;;;;;;;23.63;9.65;;;6.70;99.90;;;;;;4891170;29;20131;-69
2022/11/21 12:57:04;;;;;;;20.23;9.15;;;4.80;99.90;;;;;;4895563;29;20056;-70
2022/11/21 12:59:35;;;;;;;25.25;10.50;;;4.30;99.90;;;;;;4889728;29;20496;-71
2022/11/21 13:02:14;;;;;;;20.25;9.10;;;4.00;99.90;;;;;;4890391;29;20049;-70
2022/11/21 13:04:41;;;;;;;22.45;8.82;;;3.80;99.90;;;;;;4890100;29;20060;-70
2022/11/21 13:07:07;;;;;;;26.02;10.98;;;3.60;99.90;;;;;;4897527;29;20053;-71
2022/11/21 13:09:42;;;;;;;27.63;11.25;;;3.50;99.90;;;;;;4892705;29;20049;-70
2022/11/21 13:12:25;;;;;;;29.27;11.68;;;3.50;99.90;;;;;;4888543;29;20047;-70
2022/11/21 13:15:09;;;;;;;24.95;10.18;;;3.40;99.90;;;;;;4909286;29;20069;-70
2022/11/21 13:17:40;;;;;;;30.95;11.35;;;3.50;99.90;;;;;;4885139;29;20064;-70
2022/11/21 13:20:15;;;;;;;25.88;10.85;;;3.50;99.90;;;;;;4895802;29;20048;-70
2022/11/21 13:22:44;;;;;;;28.15;11.57;;;3.50;99.90;;;;;;4884972;29;20140;-69
2022/11/21 13:25:39;;;;;;;27.52;10.82;;;3.50;99.90;;;;;;4893102;29;20490;-73
2022/11/21 13:28:16;;;;;;;28.35;11.50;;;3.50;99.90;;;;;;4893839;29;20089;-70
2022/11/21 13:30:50;;;;;;;31.70;12.20;;;3.50;99.90;;;;;;4886076;29;20041;-76